createdAt,value
2022-12-17T00:02:23.371Z,95074.16
2022-12-17T00:05:08.638Z,95100.34
2022-12-17T00:07:54.977Z,95101.16
2022-12-17T00:10:41.723Z,95044.34
2022-12-17T00:13:37.452Z,95103.50
2022-12-17T00:16:25.881Z,95097.22
2022-12-17T00:19:12.523Z,95105.25
2022-12-17T00:21:58.069Z,95109.06
2022-12-17T00:24:43.944Z,95085.19
2022-12-17T00:27:29.307Z,95114.09
2022-12-17T00:30:14.650Z,94995.75
2022-12-17T00:33:00.045Z,95047.03
2022-12-17T00:35:46.593Z,95109.50
2022-12-17T00:38:34.041Z,95107.59
2022-12-17T00:41:33.686Z,95066.59
2022-12-17T00:44:19.244Z,95094.16
2022-12-17T00:47:04.638Z,95094.00
2022-12-17T00:49:50.065Z,95077.75
2022-12-17T00:52:37.257Z,95059.94
2022-12-17T00:55:23.620Z,95062.16
2022-12-17T00:58:12.461Z,95084.53
2022-12-17T01:00:57.988Z,95042.28
2022-12-17T01:03:43.302Z,95065.31
2022-12-17T01:06:29.286Z,95064.97
2022-12-17T01:09:16.530Z,95063.38
2022-12-17T01:12:02.129Z,95097.13
2022-12-17T01:14:47.384Z,95051.13
2022-12-17T01:17:41.287Z,95090.69
2022-12-17T01:20:27.219Z,95075.38
2022-12-17T01:23:12.424Z,95066.72
2022-12-17T01:25:59.310Z,95123.00
2022-12-17T01:28:45.914Z,95072.81
2022-12-17T01:31:34.979Z,95072.78
2022-12-17T01:34:20.645Z,95085.44
2022-12-17T01:37:06.186Z,95039.34
2022-12-17T01:39:51.540Z,95049.59
2022-12-17T01:42:38.450Z,95073.47
2022-12-17T01:45:25.987Z,95083.56
2022-12-17T01:48:26.758Z,95077.25
2022-12-17T01:51:15.115Z,95039.06
2022-12-17T01:54:06.299Z,95089.38
2022-12-17T01:56:52.510Z,95083.09
2022-12-17T01:59:44.580Z,95089.09
2022-12-17T02:02:30.163Z,95059.44
2022-12-17T02:05:15.487Z,95055.00
2022-12-17T02:08:11.409Z,95070.09
2022-12-17T02:11:10.250Z,95058.91
2022-12-17T02:14:00.524Z,95054.53
2022-12-17T02:16:54.098Z,95056.09
2022-12-17T02:19:49.714Z,95072.78
2022-12-17T02:22:45.740Z,95045.06
2022-12-17T02:25:37.230Z,95105.38
2022-12-17T02:28:24.206Z,95059.69
2022-12-17T02:31:10.016Z,95058.28
2022-12-17T02:33:55.654Z,95050.41
2022-12-17T02:36:41.050Z,95050.06
2022-12-17T02:39:26.083Z,95033.38
2022-12-17T02:42:15.593Z,95039.03
2022-12-17T02:45:02.770Z,95073.75
2022-12-17T02:47:48.246Z,95036.41
2022-12-17T02:50:33.924Z,95042.38
2022-12-17T02:53:21.478Z,95032.78
2022-12-17T02:56:06.889Z,95035.13
2022-12-17T02:58:52.329Z,94954.88
2022-12-17T03:01:39.503Z,94995.88
2022-12-17T03:04:25.061Z,94988.59
2022-12-17T03:07:10.220Z,94976.66
2022-12-17T03:09:55.477Z,95000.31
2022-12-17T03:12:40.875Z,94957.16
2022-12-17T03:15:26.773Z,95020.19
2022-12-17T03:18:13.949Z,94970.06
2022-12-17T03:20:59.501Z,95010.59
2022-12-17T03:23:44.783Z,94984.22
2022-12-17T03:26:30.326Z,94965.50
2022-12-17T03:29:24.098Z,94986.75
2022-12-17T03:32:10.447Z,95002.38
2022-12-17T03:34:57.251Z,95009.94
2022-12-17T03:37:42.624Z,95019.53
2022-12-17T03:40:29.496Z,94973.66
2022-12-17T03:43:23.279Z,94983.94
2022-12-17T03:46:11.230Z,94966.75
2022-12-17T03:48:56.781Z,94975.41
2022-12-17T03:51:43.429Z,95006.19
2022-12-17T03:54:28.517Z,94972.75
2022-12-17T03:57:16.184Z,95000.50
2022-12-17T04:00:01.716Z,94995.59
2022-12-17T04:02:48.288Z,94979.22
2022-12-17T04:05:33.656Z,95024.63
2022-12-17T04:08:20.307Z,94977.63
2022-12-17T04:11:05.676Z,94997.50
2022-12-17T04:13:51.120Z,94963.28
2022-12-17T04:16:36.389Z,95032.66
2022-12-17T04:19:21.655Z,94968.97
2022-12-17T04:22:06.959Z,95012.16
2022-12-17T04:24:52.921Z,95014.22
2022-12-17T04:27:38.438Z,95013.72
2022-12-17T04:30:24.250Z,95035.34
2022-12-17T04:33:09.881Z,95004.44
2022-12-17T04:35:54.838Z,94992.59
2022-12-17T04:38:40.283Z,95029.16
2022-12-17T04:41:27.271Z,94982.84
2022-12-17T04:44:12.716Z,95009.81
2022-12-17T04:46:57.871Z,95015.00
2022-12-17T04:49:43.348Z,95016.75
2022-12-17T04:52:28.838Z,95042.44
2022-12-17T04:55:14.232Z,95044.03
2022-12-17T04:58:00.858Z,95056.81
2022-12-17T05:00:48.603Z,95047.03
2022-12-17T05:03:35.528Z,95031.09
2022-12-17T05:06:21.393Z,95028.41
2022-12-17T05:09:06.808Z,95045.13
2022-12-17T05:11:52.083Z,95082.22
2022-12-17T05:14:38.746Z,95076.06
2022-12-17T05:17:25.187Z,95082.81
2022-12-17T05:20:10.684Z,95087.41
2022-12-17T05:22:55.794Z,95028.69
2022-12-17T05:25:55.423Z,95076.06
2022-12-17T05:28:40.403Z,95069.13
2022-12-17T05:31:27.100Z,95062.16
2022-12-17T05:34:12.516Z,95022.25
2022-12-17T05:36:57.758Z,95066.59
2022-12-17T05:39:44.836Z,95086.00
2022-12-17T05:42:29.952Z,95098.75
2022-12-17T05:45:15.313Z,95047.19
2022-12-17T05:48:01.983Z,95089.97
2022-12-17T05:50:47.392Z,95103.03
2022-12-17T05:53:29.148Z,95050.34
2022-12-17T05:56:14.674Z,95002.69
2022-12-17T05:59:00.033Z,95085.53
2022-12-17T06:01:45.274Z,95072.72
2022-12-17T06:04:32.430Z,95076.69
2022-12-17T06:07:17.695Z,95087.06
2022-12-17T06:10:03.175Z,95099.53
2022-12-17T06:12:48.595Z,95094.03
2022-12-17T06:15:34.113Z,95069.53
2022-12-17T06:18:19.569Z,95098.53
2022-12-17T06:21:06.298Z,95097.16
2022-12-17T06:23:51.763Z,95093.47
2022-12-17T06:26:37.472Z,95041.69
2022-12-17T06:29:22.905Z,95116.13
2022-12-17T06:32:08.512Z,95126.38
2022-12-17T06:34:53.826Z,95101.75
2022-12-17T06:37:40.480Z,95145.97
2022-12-17T06:40:26.799Z,95098.47
2022-12-17T06:43:12.628Z,95136.84
2022-12-17T06:45:58.161Z,95084.19
2022-12-17T06:48:43.330Z,95140.09
2022-12-17T06:51:28.615Z,95155.31
2022-12-17T06:54:15.564Z,95153.81
2022-12-17T06:57:01.095Z,95127.97
2022-12-17T06:59:46.610Z,95155.66
2022-12-17T07:02:31.855Z,95187.06
2022-12-17T07:05:17.278Z,95230.06
2022-12-17T07:08:02.425Z,95248.38
2022-12-17T07:10:49.399Z,95262.06
2022-12-17T07:13:35.126Z,95227.34
2022-12-17T07:16:20.626Z,95219.56
2022-12-17T07:19:06.440Z,95294.06
2022-12-17T07:21:51.022Z,95319.56
2022-12-17T07:24:36.608Z,95302.25
2022-12-17T07:27:23.873Z,95266.00
2022-12-17T07:30:08.925Z,95197.56
2022-12-17T07:32:54.397Z,95232.66
2022-12-17T07:35:39.879Z,95240.41
2022-12-17T07:38:25.276Z,95216.22
2022-12-17T07:41:10.822Z,95227.91
2022-12-17T07:43:57.482Z,95213.94
2022-12-17T07:46:42.995Z,95214.94
2022-12-17T07:49:28.162Z,95174.91
2022-12-17T07:52:13.394Z,95203.56
2022-12-17T07:54:58.760Z,95222.81
2022-12-17T07:57:43.962Z,95174.97
2022-12-17T08:00:32.486Z,95134.66
2022-12-17T08:03:18.594Z,95140.63
2022-12-17T08:06:09.558Z,95130.06
2022-12-17T08:08:57.817Z,95153.25
2022-12-17T08:11:44.962Z,95184.66
2022-12-17T08:14:30.128Z,95174.34
2022-12-17T08:17:19.051Z,95201.69
2022-12-17T08:20:00.943Z,95170.19
2022-12-17T08:22:47.050Z,95179.41
2022-12-17T08:25:32.207Z,95220.69
2022-12-17T08:28:48.927Z,95230.25
2022-12-17T08:31:24.513Z,95224.75
2022-12-17T08:34:14.384Z,95203.59
2022-12-17T08:36:59.440Z,95189.28
2022-12-17T08:39:44.977Z,95191.41
2022-12-17T08:42:30.498Z,95193.22
2022-12-17T08:45:15.993Z,95140.00
2022-12-17T08:48:04.069Z,95205.16
2022-12-17T08:51:02.542Z,95247.72
2022-12-17T08:53:47.856Z,95284.69
2022-12-17T08:56:33.482Z,95263.66
2022-12-17T08:59:19.077Z,95280.31
2022-12-17T09:02:04.235Z,95260.41
2022-12-17T09:04:49.528Z,95258.47
2022-12-17T09:07:36.594Z,95266.50
2022-12-17T09:10:22.607Z,95254.13
2022-12-17T09:13:08.160Z,95255.44
2022-12-17T09:15:53.509Z,95279.03
2022-12-17T09:18:39.879Z,95270.69
2022-12-17T09:21:26.050Z,95244.50
2022-12-17T09:24:12.898Z,95290.53
2022-12-17T09:26:58.202Z,95290.25
2022-12-17T09:29:43.388Z,95293.53
2022-12-17T09:32:28.728Z,95309.75
2022-12-17T09:35:14.219Z,95333.75
2022-12-17T09:37:59.180Z,95340.75
2022-12-17T09:40:46.032Z,95347.56
2022-12-17T09:43:42.528Z,95221.25
2022-12-17T09:46:39.146Z,95311.19
2022-12-17T09:49:35.135Z,95337.63
2022-12-17T09:52:30.579Z,95340.25
2022-12-17T09:55:16.163Z,95287.50
2022-12-17T09:58:02.779Z,95299.69
2022-12-17T10:00:48.202Z,95296.34
2022-12-17T10:03:36.145Z,95326.97
2022-12-17T10:06:27.488Z,95321.34
2022-12-17T10:09:17.772Z,95231.75
2022-12-17T10:12:03.248Z,95307.22
2022-12-17T10:14:50.170Z,95301.63
2022-12-17T10:17:42.237Z,95325.41
2022-12-17T10:20:39.683Z,95346.00
2022-12-17T10:23:25.156Z,95357.09
2022-12-17T10:26:12.509Z,95382.47
2022-12-17T10:28:58.564Z,95398.75
2022-12-17T10:31:49.061Z,95381.44
2022-12-17T10:34:36.786Z,95382.59
2022-12-17T10:37:23.134Z,95387.34
2022-12-17T10:40:14.482Z,95372.56
2022-12-17T10:42:59.879Z,95357.50
2022-12-17T10:45:55.728Z,95354.94
2022-12-17T10:48:43.917Z,95357.75
2022-12-17T10:51:38.767Z,95347.50
2022-12-17T10:54:29.283Z,95337.53
2022-12-17T10:57:19.683Z,95327.66
2022-12-17T11:00:05.815Z,95309.03
2022-12-17T11:02:51.895Z,95295.78
2022-12-17T11:05:46.180Z,95294.44
2022-12-17T11:08:34.850Z,95282.47
2022-12-17T11:11:23.331Z,95265.78
2022-12-17T11:14:12.203Z,95275.13
2022-12-17T11:17:11.060Z,95288.44
2022-12-17T11:20:02.922Z,95309.19
2022-12-17T11:22:57.229Z,95296.69
2022-12-17T11:25:51.146Z,95309.53
2022-12-17T11:28:41.206Z,95329.69
2022-12-17T11:31:52.344Z,95328.84
2022-12-17T11:34:45.846Z,95333.41
2022-12-17T11:37:37.382Z,95353.16
2022-12-17T11:40:38.899Z,95336.69
2022-12-17T11:43:34.276Z,95345.19
2022-12-17T11:46:28.444Z,95345.50
2022-12-17T11:49:23.787Z,95358.25
2022-12-17T11:52:18.854Z,95346.91
2022-12-17T11:55:12.989Z,95344.44
2022-12-17T11:58:12.601Z,95340.38
2022-12-17T12:01:16.552Z,95327.22
2022-12-17T12:04:15.029Z,95345.25
2022-12-17T12:07:12.222Z,95335.19
2022-12-17T12:10:06.801Z,95332.81
2022-12-17T12:13:05.406Z,95343.59
2022-12-17T12:16:09.319Z,95352.16
2022-12-17T12:19:02.332Z,95336.66
2022-12-17T12:21:58.124Z,95329.94
2022-12-17T12:25:05.925Z,95321.44
2022-12-17T12:27:59.375Z,95347.00
2022-12-17T12:30:51.565Z,95345.63
2022-12-17T12:33:47.981Z,95359.44
2022-12-17T12:36:37.524Z,95330.63
2022-12-17T12:39:29.156Z,95353.09
2022-12-17T12:42:21.973Z,95365.00
2022-12-17T12:45:16.912Z,95348.59
2022-12-17T12:48:15.975Z,95353.91
2022-12-17T12:51:09.614Z,95336.94
2022-12-17T12:53:55.227Z,95350.44
2022-12-17T12:56:45.459Z,95347.97
2022-12-17T12:59:39.965Z,95329.34
2022-12-17T13:02:37.630Z,95339.09
2022-12-17T13:05:33.342Z,95347.84
2022-12-17T13:08:19.491Z,95351.25
2022-12-17T13:10:48.396Z,95357.34
2022-12-17T13:13:29.132Z,95333.72
2022-12-17T13:16:02.208Z,95357.75
2022-12-17T13:18:34.549Z,95346.47
2022-12-17T13:21:06.998Z,95326.66
2022-12-17T13:23:36.901Z,95326.25
2022-12-17T13:26:25.558Z,95344.69
2022-12-17T13:29:03.291Z,95353.28
2022-12-17T13:31:34.613Z,95352.84
2022-12-17T13:34:13.117Z,95343.50
2022-12-17T13:36:49.164Z,95364.44
2022-12-17T13:39:29.822Z,95356.78
2022-12-17T13:41:58.028Z,95365.75
2022-12-17T13:44:29.615Z,95373.13
2022-12-17T13:46:58.343Z,95375.09
2022-12-17T13:49:28.453Z,95383.44
2022-12-17T13:52:11.418Z,95380.19
2022-12-17T13:54:39.898Z,95367.69
2022-12-17T13:57:09.722Z,95378.50
2022-12-17T13:59:37.797Z,95374.00
2022-12-17T14:02:06.241Z,95375.53
2022-12-17T14:04:34.395Z,95379.63
2022-12-17T14:07:06.985Z,95386.38
2022-12-17T14:09:40.132Z,95393.69
2022-12-17T14:12:25.181Z,95393.63
2022-12-17T14:14:57.253Z,95403.19
2022-12-17T14:17:27.275Z,95405.88
2022-12-17T14:20:00.525Z,95401.16
2022-12-17T14:22:35.811Z,95408.53
2022-12-17T14:25:04.508Z,95399.72
2022-12-17T14:27:34.912Z,95414.66
2022-12-17T14:30:04.308Z,95404.22
2022-12-17T14:32:35.332Z,95394.53
2022-12-17T14:35:04.620Z,95402.63
2022-12-17T14:37:33.926Z,95413.22
2022-12-17T14:40:05.422Z,95412.38
2022-12-17T14:42:37.710Z,95415.50
2022-12-17T14:45:09.147Z,95407.50
2022-12-17T14:47:38.953Z,95405.13
2022-12-17T14:50:24.438Z,95407.34
2022-12-17T14:52:55.381Z,95421.19
2022-12-17T14:55:28.959Z,95421.38
2022-12-17T14:58:25.625Z,95429.31
2022-12-17T15:00:57.069Z,95433.00
2022-12-17T15:03:28.075Z,95429.94
2022-12-17T15:05:59.438Z,95441.63
2022-12-17T15:08:34.775Z,95437.22
2022-12-17T15:11:02.999Z,95434.25
2022-12-17T15:13:30.904Z,95437.94
2022-12-17T15:15:59.103Z,95444.81
2022-12-17T15:18:26.962Z,95461.59
2022-12-17T15:20:54.871Z,95450.34
2022-12-17T15:23:24.313Z,95453.28
2022-12-17T15:25:54.782Z,95464.81
2022-12-17T15:28:27.882Z,95469.56
2022-12-17T15:30:55.763Z,95480.34
2022-12-17T15:33:23.690Z,95475.44
2022-12-17T15:35:51.676Z,95460.28
2022-12-17T15:38:19.775Z,95483.09
2022-12-17T15:40:47.645Z,95485.47
2022-12-17T15:43:16.062Z,95478.97
2022-12-17T15:45:45.711Z,95471.88
2022-12-17T15:48:17.432Z,95470.25
2022-12-17T15:50:45.302Z,95463.75
2022-12-17T15:53:13.284Z,95469.53
2022-12-17T15:55:41.790Z,95474.91
2022-12-17T15:58:11.676Z,95475.38
2022-12-17T16:00:40.918Z,95467.00
2022-12-17T16:03:08.833Z,95482.84
2022-12-17T16:05:36.725Z,95485.53
2022-12-17T16:08:04.765Z,95484.28
2022-12-17T16:10:32.662Z,95495.69
2022-12-17T16:13:00.499Z,95504.88
2022-12-17T16:15:28.430Z,95506.78
2022-12-17T16:17:57.805Z,95497.63
2022-12-17T16:20:25.706Z,95510.00
2022-12-17T16:22:53.527Z,95519.53
2022-12-17T16:25:21.448Z,95510.97
2022-12-17T16:27:49.278Z,95518.88
2022-12-17T16:30:17.266Z,95495.94
2022-12-17T16:32:45.846Z,95528.41
2022-12-17T16:35:15.239Z,95545.34
2022-12-17T16:37:43.154Z,95518.94
2022-12-17T16:40:12.511Z,95540.13
2022-12-17T16:42:40.393Z,95542.16
2022-12-17T16:45:09.199Z,95521.13
2022-12-17T16:47:37.119Z,95541.56
2022-12-17T16:50:05.918Z,95546.91
2022-12-17T16:52:35.223Z,95544.38
2022-12-17T16:55:03.115Z,95533.63
2022-12-17T16:57:31.060Z,95551.38
2022-12-17T16:59:59.100Z,95554.88
2022-12-17T17:02:27.239Z,95558.81
2022-12-17T17:04:55.249Z,95560.22
2022-12-17T17:07:23.069Z,95568.16
2022-12-17T17:09:54.221Z,95537.59
2022-12-17T17:12:22.235Z,95568.94
2022-12-17T17:14:52.761Z,95579.88
2022-12-17T17:17:55.610Z,95569.91
2022-12-17T17:20:09.160Z,95578.13
2022-12-17T17:22:37.246Z,95575.28
2022-12-17T17:25:07.097Z,95584.78
2022-12-17T17:27:35.295Z,95582.09
2022-12-17T17:30:04.177Z,95589.69
2022-12-17T17:32:32.138Z,95603.47
2022-12-17T17:35:00.079Z,95604.91
2022-12-17T17:37:28.057Z,95604.72
2022-12-17T17:39:56.058Z,95612.16
2022-12-17T17:42:25.268Z,95608.72
2022-12-17T17:44:53.261Z,95612.66
2022-12-17T17:47:21.156Z,95618.06
2022-12-17T17:49:49.014Z,95616.63
2022-12-17T17:52:17.901Z,95619.78
2022-12-17T17:54:45.767Z,95619.47
2022-12-17T17:57:13.663Z,95628.66
2022-12-17T17:59:42.989Z,95625.81
2022-12-17T18:02:12.012Z,95627.53
2022-12-17T18:04:39.980Z,95641.41
2022-12-17T18:09:55.981Z,95649.53
2022-12-17T18:12:47.376Z,95659.53
2022-12-17T18:15:18.098Z,95672.19
2022-12-17T18:17:47.910Z,95667.53
2022-12-17T18:20:16.833Z,95671.84
2022-12-17T18:22:46.835Z,95674.34
2022-12-17T18:25:15.595Z,95681.78
2022-12-17T18:27:43.605Z,95675.47
2022-12-17T18:30:12.175Z,95681.44
2022-12-17T18:32:41.409Z,95660.41
2022-12-17T18:35:10.491Z,95688.97
2022-12-17T18:37:39.056Z,95691.72
2022-12-17T18:40:08.565Z,95697.59
2022-12-17T18:42:54.086Z,95704.59
2022-12-17T18:45:22.183Z,95692.19
2022-12-17T18:47:51.961Z,95707.88
2022-12-17T18:50:19.998Z,95716.78
2022-12-17T18:52:47.885Z,95719.19
2022-12-17T18:55:16.325Z,95731.22
2022-12-17T18:57:44.197Z,95734.38
2022-12-17T19:00:13.334Z,95720.09
2022-12-17T19:02:41.367Z,95667.56
2022-12-17T19:05:10.813Z,95741.16
2022-12-17T19:07:38.711Z,95742.94
2022-12-17T19:10:07.522Z,95752.28
2022-12-17T19:12:35.859Z,95750.06
2022-12-17T19:15:06.188Z,95754.66
2022-12-17T19:17:34.073Z,95734.50
2022-12-17T19:20:01.903Z,95764.81
2022-12-17T19:22:31.138Z,95768.94
2022-12-17T19:24:59.035Z,95761.63
2022-12-17T19:27:26.936Z,95772.41
2022-12-17T19:29:56.463Z,95768.44
2022-12-17T19:32:24.830Z,95769.38
2022-12-17T19:34:52.718Z,95769.50
2022-12-17T19:37:20.514Z,95779.53
2022-12-17T19:39:49.743Z,95791.09
2022-12-17T19:42:25.489Z,95770.44
2022-12-17T19:44:53.999Z,95761.53
2022-12-17T19:47:22.771Z,95777.78
2022-12-17T19:49:51.294Z,95787.00
2022-12-17T19:52:19.241Z,95790.28
2022-12-17T19:54:47.066Z,95786.13
2022-12-17T19:57:16.286Z,95791.81
2022-12-17T19:59:44.165Z,95801.13
2022-12-17T20:02:12.937Z,95802.06
2022-12-17T20:04:40.974Z,95794.03
2022-12-17T20:07:08.819Z,95805.81
2022-12-17T20:09:36.627Z,95805.00
2022-12-17T20:12:04.883Z,95813.72
2022-12-17T20:14:35.339Z,95835.53
2022-12-17T20:17:05.048Z,95830.47
2022-12-17T20:19:34.771Z,95815.19
2022-12-17T20:22:04.685Z,95833.78
2022-12-17T20:24:33.012Z,95845.50
2022-12-17T20:27:01.810Z,95808.47
2022-12-17T20:29:29.797Z,95850.28
2022-12-17T20:32:01.833Z,95848.06
2022-12-17T20:34:29.799Z,95854.06
2022-12-17T20:36:57.695Z,95851.06
2022-12-17T20:39:28.228Z,95859.16
2022-12-17T20:41:57.226Z,95855.78
2022-12-17T20:44:25.184Z,95861.16
2022-12-17T20:46:53.251Z,95869.09
2022-12-17T20:49:22.701Z,95866.41
2022-12-17T20:51:50.585Z,95868.97
2022-12-17T20:54:18.641Z,95862.75
2022-12-17T20:56:46.584Z,95872.28
2022-12-17T20:59:17.839Z,95877.28
2022-12-17T21:01:50.256Z,95861.53
2022-12-17T21:04:22.343Z,95878.69
2022-12-17T21:06:50.230Z,95893.84
2022-12-17T21:09:20.897Z,95894.34
2022-12-17T21:11:49.426Z,95891.47
2022-12-17T21:14:19.176Z,95901.00
2022-12-17T21:16:47.782Z,95884.13
2022-12-17T21:19:18.061Z,95877.56
2022-12-17T21:21:47.437Z,95906.00
2022-12-17T21:24:15.487Z,95901.84
2022-12-17T21:26:44.793Z,95898.66
2022-12-17T21:29:13.167Z,95932.09
2022-12-17T21:31:44.014Z,95915.34
2022-12-17T21:34:14.340Z,95917.94
2022-12-17T21:36:42.794Z,95917.56
2022-12-17T21:39:14.794Z,95924.81
2022-12-17T21:42:12.727Z,95930.91
2022-12-17T21:44:40.636Z,95919.97
2022-12-17T21:47:08.673Z,95920.78
2022-12-17T21:49:36.571Z,95933.31
2022-12-17T21:52:04.817Z,95928.94
2022-12-17T21:54:37.166Z,95934.22
2022-12-17T21:57:05.578Z,95947.84
2022-12-17T21:59:33.454Z,95954.72
2022-12-17T22:02:01.377Z,95961.78
2022-12-17T22:04:29.374Z,95946.69
2022-12-17T22:07:05.825Z,95958.41
2022-12-17T22:10:17.269Z,95964.41
2022-12-17T22:12:51.650Z,95958.81
2022-12-17T22:15:19.657Z,95964.78
2022-12-17T22:17:48.686Z,95969.34
2022-12-17T22:20:17.745Z,95957.63
2022-12-17T22:22:46.194Z,95962.97
2022-12-17T22:25:16.247Z,95966.16
2022-12-17T22:27:44.264Z,95966.34
2022-12-17T22:30:34.107Z,95967.06
2022-12-17T22:33:12.081Z,95961.56
2022-12-17T22:38:29.873Z,95969.53
2022-12-17T22:42:45.391Z,95963.34
2022-12-17T22:44:45.246Z,95969.75
2022-12-17T22:44:53.354Z,95974.91
2022-12-17T22:47:21.955Z,95962.16
2022-12-17T22:49:49.897Z,95976.09
2022-12-17T22:52:19.063Z,95973.00
2022-12-17T22:54:48.051Z,95979.44
2022-12-17T22:57:36.162Z,95985.41
2022-12-17T23:00:09.775Z,95985.00
2022-12-17T23:02:37.914Z,95997.91
2022-12-17T23:05:06.291Z,96003.34
2022-12-17T23:07:34.141Z,95999.44
2022-12-17T23:10:02.257Z,95998.44
2022-12-17T23:12:48.684Z,95999.91
2022-12-17T23:15:16.530Z,95994.69
2022-12-17T23:17:44.403Z,96016.09
2022-12-17T23:20:12.855Z,96015.00
2022-12-17T23:22:40.771Z,96026.31
2022-12-17T23:25:09.711Z,96023.19
2022-12-17T23:27:41.919Z,96027.50
2022-12-17T23:30:10.926Z,96023.34
2022-12-17T23:32:38.918Z,96034.00
2022-12-17T23:35:07.927Z,96028.44
2022-12-17T23:37:39.776Z,96048.72
2022-12-17T23:40:12.085Z,96046.09
2022-12-17T23:42:41.318Z,96056.38
2022-12-17T23:45:11.490Z,96037.00
2022-12-17T23:47:39.981Z,96057.53
2022-12-17T23:50:10.532Z,96047.50
2022-12-17T23:52:39.167Z,96058.34
2022-12-17T23:55:09.108Z,96069.00
2022-12-17T23:57:36.991Z,96073.88
